sensor_id;sensor_type;location;lat;lon;timestamp;temperature;humidity
63260;DHT22;49390;51.380;0.098;2023-05-10T00:00:49;12.30;99.90
63260;DHT22;49390;51.380;0.098;2023-05-10T00:03:19;12.30;99.90
63260;DHT22;49390;51.380;0.098;2023-05-10T00:05:50;12.30;99.90
63260;DHT22;49390;51.380;0.098;2023-05-10T00:08:18;12.30;99.90
63260;DHT22;49390;51.380;0.098;2023-05-10T00:10:46;12.30;99.90
63260;DHT22;49390;51.380;0.098;2023-05-10T00:13:14;12.30;99.90
63260;DHT22;49390;51.380;0.098;2023-05-10T00:15:43;12.30;99.90
63260;DHT22;49390;51.380;0.098;2023-05-10T00:18:11;12.30;99.90
63260;DHT22;49390;51.380;0.098;2023-05-10T00:20:39;12.30;99.90
63260;DHT22;49390;51.380;0.098;2023-05-10T00:23:07;12.30;99.90
63260;DHT22;49390;51.380;0.098;2023-05-10T00:25:35;12.30;99.90
63260;DHT22;49390;51.380;0.098;2023-05-10T00:28:03;12.30;99.90
63260;DHT22;49390;51.380;0.098;2023-05-10T00:30:32;12.30;99.90
63260;DHT22;49390;51.380;0.098;2023-05-10T00:33:01;12.30;99.90
63260;DHT22;49390;51.380;0.098;2023-05-10T00:35:30;12.30;99.90
63260;DHT22;49390;51.380;0.098;2023-05-10T00:37:58;12.30;99.90
63260;DHT22;49390;51.380;0.098;2023-05-10T00:40:27;12.30;99.90
63260;DHT22;49390;51.380;0.098;2023-05-10T00:42:59;12.30;99.90
63260;DHT22;49390;51.380;0.098;2023-05-10T00:45:31;12.20;99.90
63260;DHT22;49390;51.380;0.098;2023-05-10T00:48:04;12.30;99.90
63260;DHT22;49390;51.380;0.098;2023-05-10T00:50:38;12.20;99.90
63260;DHT22;49390;51.380;0.098;2023-05-10T00:53:11;12.20;99.90
63260;DHT22;49390;51.380;0.098;2023-05-10T00:55:40;12.30;99.90
63260;DHT22;49390;51.380;0.098;2023-05-10T00:58:08;12.30;99.90
63260;DHT22;49390;51.380;0.098;2023-05-10T01:00:37;12.30;99.90
63260;DHT22;49390;51.380;0.098;2023-05-10T01:03:10;12.30;99.90
63260;DHT22;49390;51.380;0.098;2023-05-10T01:05:39;12.30;99.90
63260;DHT22;49390;51.380;0.098;2023-05-10T01:08:10;12.40;99.90
63260;DHT22;49390;51.380;0.098;2023-05-10T01:10:40;12.40;99.90
63260;DHT22;49390;51.380;0.098;2023-05-10T01:13:09;12.40;99.90
63260;DHT22;49390;51.380;0.098;2023-05-10T01:15:38;12.40;99.90
63260;DHT22;49390;51.380;0.098;2023-05-10T01:18:08;12.40;99.90
63260;DHT22;49390;51.380;0.098;2023-05-10T01:20:43;12.40;99.90
63260;DHT22;49390;51.380;0.098;2023-05-10T01:26:27;12.40;99.90
63260;DHT22;49390;51.380;0.098;2023-05-10T01:37:33;12.50;99.90
63260;DHT22;49390;51.380;0.098;2023-05-10T01:40:26;12.50;99.90
63260;DHT22;49390;51.380;0.098;2023-05-10T01:43:02;12.50;99.90
63260;DHT22;49390;51.380;0.098;2023-05-10T01:45:33;12.50;99.90
63260;DHT22;49390;51.380;0.098;2023-05-10T01:48:09;12.50;99.90
63260;DHT22;49390;51.380;0.098;2023-05-10T01:50:41;12.50;99.90
63260;DHT22;49390;51.380;0.098;2023-05-10T01:54:08;12.50;99.90
63260;DHT22;49390;51.380;0.098;2023-05-10T01:56:37;12.50;99.90
63260;DHT22;49390;51.380;0.098;2023-05-10T01:59:12;12.50;99.90
63260;DHT22;49390;51.380;0.098;2023-05-10T02:01:43;12.50;99.90
63260;DHT22;49390;51.380;0.098;2023-05-10T02:04:16;12.50;99.90
63260;DHT22;49390;51.380;0.098;2023-05-10T02:06:48;12.50;99.90
63260;DHT22;49390;51.380;0.098;2023-05-10T02:09:17;12.50;99.90
63260;DHT22;49390;51.380;0.098;2023-05-10T02:11:48;12.50;99.90
63260;DHT22;49390;51.380;0.098;2023-05-10T02:14:17;12.50;99.90
63260;DHT22;49390;51.380;0.098;2023-05-10T02:16:46;12.50;99.90
63260;DHT22;49390;51.380;0.098;2023-05-10T02:19:15;12.50;99.90
63260;DHT22;49390;51.380;0.098;2023-05-10T02:21:45;12.50;99.90
63260;DHT22;49390;51.380;0.098;2023-05-10T02:24:14;12.50;99.90
63260;DHT22;49390;51.380;0.098;2023-05-10T02:26:44;12.40;99.90
63260;DHT22;49390;51.380;0.098;2023-05-10T02:29:15;12.40;99.90
63260;DHT22;49390;51.380;0.098;2023-05-10T02:31:44;12.40;99.90
63260;DHT22;49390;51.380;0.098;2023-05-10T02:34:13;12.40;99.90
63260;DHT22;49390;51.380;0.098;2023-05-10T02:36:42;12.30;99.90
63260;DHT22;49390;51.380;0.098;2023-05-10T02:39:11;12.30;99.90
63260;DHT22;49390;51.380;0.098;2023-05-10T02:41:42;12.30;99.90
63260;DHT22;49390;51.380;0.098;2023-05-10T02:44:11;12.20;99.90
63260;DHT22;49390;51.380;0.098;2023-05-10T02:46:42;12.20;99.90
63260;DHT22;49390;51.380;0.098;2023-05-10T02:49:15;12.50;99.90
63260;DHT22;49390;51.380;0.098;2023-05-10T02:51:50;12.20;99.90
63260;DHT22;49390;51.380;0.098;2023-05-10T02:54:20;12.20;99.90
63260;DHT22;49390;51.380;0.098;2023-05-10T02:57:00;12.00;99.90
63260;DHT22;49390;51.380;0.098;2023-05-10T02:59:31;12.20;99.90
63260;DHT22;49390;51.380;0.098;2023-05-10T03:02:00;12.20;99.90
63260;DHT22;49390;51.380;0.098;2023-05-10T03:04:29;12.20;99.90
63260;DHT22;49390;51.380;0.098;2023-05-10T03:07:00;12.20;99.90
63260;DHT22;49390;51.380;0.098;2023-05-10T03:09:29;12.10;99.90
63260;DHT22;49390;51.380;0.098;2023-05-10T03:12:07;12.10;99.90
63260;DHT22;49390;51.380;0.098;2023-05-10T03:15:05;12.20;99.90
63260;DHT22;49390;51.380;0.098;2023-05-10T03:18:06;12.10;99.90
63260;DHT22;49390;51.380;0.098;2023-05-10T03:20:49;12.10;99.90
63260;DHT22;49390;51.380;0.098;2023-05-10T03:25:48;12.10;99.90
63260;DHT22;49390;51.380;0.098;2023-05-10T03:28:18;12.10;99.90
63260;DHT22;49390;51.380;0.098;2023-05-10T03:30:51;12.10;99.90
63260;DHT22;49390;51.380;0.098;2023-05-10T03:33:20;12.10;99.90
63260;DHT22;49390;51.380;0.098;2023-05-10T03:35:49;12.10;99.90
63260;DHT22;49390;51.380;0.098;2023-05-10T03:38:17;12.10;99.90
63260;DHT22;49390;51.380;0.098;2023-05-10T03:40:46;12.10;99.90
63260;DHT22;49390;51.380;0.098;2023-05-10T03:43:15;12.10;99.90
63260;DHT22;49390;51.380;0.098;2023-05-10T03:45:42;12.10;99.90
63260;DHT22;49390;51.380;0.098;2023-05-10T03:48:10;12.10;99.90
63260;DHT22;49390;51.380;0.098;2023-05-10T03:50:39;12.10;99.90
63260;DHT22;49390;51.380;0.098;2023-05-10T03:53:07;12.10;99.90
63260;DHT22;49390;51.380;0.098;2023-05-10T03:55:35;12.10;99.90
63260;DHT22;49390;51.380;0.098;2023-05-10T03:58:04;12.10;99.90
63260;DHT22;49390;51.380;0.098;2023-05-10T04:00:33;12.10;99.90
63260;DHT22;49390;51.380;0.098;2023-05-10T04:03:01;12.00;99.90
63260;DHT22;49390;51.380;0.098;2023-05-10T04:05:29;12.00;99.90
63260;DHT22;49390;51.380;0.098;2023-05-10T04:07:57;12.00;99.90
63260;DHT22;49390;51.380;0.098;2023-05-10T04:10:25;12.00;99.90
63260;DHT22;49390;51.380;0.098;2023-05-10T04:12:53;12.00;99.90
63260;DHT22;49390;51.380;0.098;2023-05-10T04:15:21;12.00;99.90
63260;DHT22;49390;51.380;0.098;2023-05-10T04:17:49;12.00;99.90
63260;DHT22;49390;51.380;0.098;2023-05-10T04:20:20;12.00;99.90
63260;DHT22;49390;51.380;0.098;2023-05-10T04:22:48;11.90;99.90
63260;DHT22;49390;51.380;0.098;2023-05-10T04:25:16;11.90;99.90
63260;DHT22;49390;51.380;0.098;2023-05-10T04:27:44;11.90;99.90
63260;DHT22;49390;51.380;0.098;2023-05-10T04:30:12;11.80;99.90
63260;DHT22;49390;51.380;0.098;2023-05-10T04:32:41;11.80;99.90
63260;DHT22;49390;51.380;0.098;2023-05-10T04:35:09;11.80;99.90
63260;DHT22;49390;51.380;0.098;2023-05-10T04:37:38;11.80;99.90
63260;DHT22;49390;51.380;0.098;2023-05-10T04:40:06;11.70;99.90
63260;DHT22;49390;51.380;0.098;2023-05-10T04:42:35;11.70;99.90
63260;DHT22;49390;51.380;0.098;2023-05-10T04:45:03;11.70;99.90
63260;DHT22;49390;51.380;0.098;2023-05-10T04:47:33;11.70;99.90
63260;DHT22;49390;51.380;0.098;2023-05-10T04:50:01;11.70;99.90
63260;DHT22;49390;51.380;0.098;2023-05-10T04:52:30;11.60;99.90
63260;DHT22;49390;51.380;0.098;2023-05-10T04:54:58;11.60;99.90
63260;DHT22;49390;51.380;0.098;2023-05-10T04:57:26;11.60;99.90
63260;DHT22;49390;51.380;0.098;2023-05-10T04:59:55;11.60;99.90
63260;DHT22;49390;51.380;0.098;2023-05-10T05:02:24;11.60;99.90
63260;DHT22;49390;51.380;0.098;2023-05-10T05:04:52;11.60;99.90
63260;DHT22;49390;51.380;0.098;2023-05-10T05:07:20;11.60;99.90
63260;DHT22;49390;51.380;0.098;2023-05-10T05:09:48;11.60;99.90
63260;DHT22;49390;51.380;0.098;2023-05-10T05:12:16;11.50;99.90
63260;DHT22;49390;51.380;0.098;2023-05-10T05:14:44;11.50;99.90
63260;DHT22;49390;51.380;0.098;2023-05-10T05:17:12;11.50;99.90
63260;DHT22;49390;51.380;0.098;2023-05-10T05:19:39;11.60;99.90
63260;DHT22;49390;51.380;0.098;2023-05-10T05:22:07;11.50;99.90
63260;DHT22;49390;51.380;0.098;2023-05-10T05:24:37;11.60;99.90
63260;DHT22;49390;51.380;0.098;2023-05-10T05:27:06;11.60;99.90
63260;DHT22;49390;51.380;0.098;2023-05-10T05:29:34;11.60;99.90
63260;DHT22;49390;51.380;0.098;2023-05-10T05:32:02;11.60;99.90
63260;DHT22;49390;51.380;0.098;2023-05-10T05:34:30;11.70;99.90
63260;DHT22;49390;51.380;0.098;2023-05-10T05:36:58;11.70;99.90
63260;DHT22;49390;51.380;0.098;2023-05-10T05:39:26;11.80;99.90
63260;DHT22;49390;51.380;0.098;2023-05-10T05:41:54;11.80;99.90
63260;DHT22;49390;51.380;0.098;2023-05-10T05:44:22;11.80;99.90
63260;DHT22;49390;51.380;0.098;2023-05-10T05:46:50;11.90;99.90
63260;DHT22;49390;51.380;0.098;2023-05-10T05:49:18;12.00;99.90
63260;DHT22;49390;51.380;0.098;2023-05-10T05:51:46;12.00;99.90
63260;DHT22;49390;51.380;0.098;2023-05-10T05:54:14;12.00;99.90
63260;DHT22;49390;51.380;0.098;2023-05-10T05:56:42;12.10;99.90
63260;DHT22;49390;51.380;0.098;2023-05-10T05:59:11;12.10;99.90
63260;DHT22;49390;51.380;0.098;2023-05-10T06:01:39;12.20;99.90
63260;DHT22;49390;51.380;0.098;2023-05-10T06:04:07;12.20;99.90
63260;DHT22;49390;51.380;0.098;2023-05-10T06:06:35;12.20;99.90
63260;DHT22;49390;51.380;0.098;2023-05-10T06:09:03;12.20;99.90
63260;DHT22;49390;51.380;0.098;2023-05-10T06:11:31;12.30;99.90
63260;DHT22;49390;51.380;0.098;2023-05-10T06:13:59;12.30;99.90
63260;DHT22;49390;51.380;0.098;2023-05-10T06:16:28;12.30;99.90
63260;DHT22;49390;51.380;0.098;2023-05-10T06:18:56;12.40;99.90
63260;DHT22;49390;51.380;0.098;2023-05-10T06:21:24;12.40;99.90
63260;DHT22;49390;51.380;0.098;2023-05-10T06:23:52;12.50;99.90
63260;DHT22;49390;51.380;0.098;2023-05-10T06:26:21;12.50;99.90
63260;DHT22;49390;51.380;0.098;2023-05-10T06:28:48;12.60;99.90
63260;DHT22;49390;51.380;0.098;2023-05-10T06:31:16;12.60;99.90
63260;DHT22;49390;51.380;0.098;2023-05-10T06:33:45;12.60;99.90
63260;DHT22;49390;51.380;0.098;2023-05-10T06:36:13;12.60;99.90
63260;DHT22;49390;51.380;0.098;2023-05-10T06:38:41;12.70;99.90
63260;DHT22;49390;51.380;0.098;2023-05-10T06:41:09;12.70;99.90
63260;DHT22;49390;51.380;0.098;2023-05-10T06:43:37;12.80;99.90
63260;DHT22;49390;51.380;0.098;2023-05-10T06:46:07;12.80;99.90
63260;DHT22;49390;51.380;0.098;2023-05-10T06:48:35;12.90;99.90
63260;DHT22;49390;51.380;0.098;2023-05-10T06:51:04;13.00;99.90
63260;DHT22;49390;51.380;0.098;2023-05-10T06:53:31;13.00;99.90
63260;DHT22;49390;51.380;0.098;2023-05-10T06:55:59;13.20;99.90
63260;DHT22;49390;51.380;0.098;2023-05-10T06:58:27;13.30;99.90
63260;DHT22;49390;51.380;0.098;2023-05-10T07:01:04;13.50;99.90
63260;DHT22;49390;51.380;0.098;2023-05-10T07:03:32;13.70;99.90
63260;DHT22;49390;51.380;0.098;2023-05-10T07:06:01;14.10;99.90
63260;DHT22;49390;51.380;0.098;2023-05-10T07:08:34;14.40;99.90
63260;DHT22;49390;51.380;0.098;2023-05-10T07:11:03;14.80;99.90
63260;DHT22;49390;51.380;0.098;2023-05-10T07:13:31;15.10;99.90
63260;DHT22;49390;51.380;0.098;2023-05-10T07:16:00;15.40;99.90
63260;DHT22;49390;51.380;0.098;2023-05-10T07:18:30;15.70;99.90
63260;DHT22;49390;51.380;0.098;2023-05-10T07:20:58;16.00;99.90
63260;DHT22;49390;51.380;0.098;2023-05-10T07:23:25;16.40;99.90
63260;DHT22;49390;51.380;0.098;2023-05-10T07:25:53;16.80;99.90
63260;DHT22;49390;51.380;0.098;2023-05-10T07:28:21;17.10;99.90
63260;DHT22;49390;51.380;0.098;2023-05-10T07:30:50;17.30;99.90
63260;DHT22;49390;51.380;0.098;2023-05-10T07:33:18;17.40;99.90
63260;DHT22;49390;51.380;0.098;2023-05-10T07:35:46;17.60;99.90
63260;DHT22;49390;51.380;0.098;2023-05-10T07:38:14;17.80;99.90
63260;DHT22;49390;51.380;0.098;2023-05-10T07:40:42;18.00;99.90
63260;DHT22;49390;51.380;0.098;2023-05-10T07:43:10;18.30;99.90
63260;DHT22;49390;51.380;0.098;2023-05-10T07:45:38;18.50;99.90
63260;DHT22;49390;51.380;0.098;2023-05-10T07:48:06;18.70;99.90
63260;DHT22;49390;51.380;0.098;2023-05-10T07:50:34;18.90;99.90
63260;DHT22;49390;51.380;0.098;2023-05-10T07:53:02;19.10;99.90
63260;DHT22;49390;51.380;0.098;2023-05-10T07:55:30;19.40;99.90
63260;DHT22;49390;51.380;0.098;2023-05-10T07:57:58;19.60;99.90
63260;DHT22;49390;51.380;0.098;2023-05-10T08:00:28;19.70;99.90
63260;DHT22;49390;51.380;0.098;2023-05-10T08:02:58;19.90;99.90
63260;DHT22;49390;51.380;0.098;2023-05-10T08:05:26;20.00;99.90
63260;DHT22;49390;51.380;0.098;2023-05-10T08:07:57;20.10;99.80
63260;DHT22;49390;51.380;0.098;2023-05-10T08:10:27;20.20;98.00
63260;DHT22;49390;51.380;0.098;2023-05-10T08:12:55;20.30;96.00
63260;DHT22;49390;51.380;0.098;2023-05-10T08:15:25;20.40;94.80
63260;DHT22;49390;51.380;0.098;2023-05-10T08:17:53;20.50;93.40
63260;DHT22;49390;51.380;0.098;2023-05-10T08:20:22;20.60;92.40
63260;DHT22;49390;51.380;0.098;2023-05-10T08:22:52;20.80;91.20
63260;DHT22;49390;51.380;0.098;2023-05-10T08:25:20;20.90;90.40
63260;DHT22;49390;51.380;0.098;2023-05-10T08:27:48;21.00;88.30
63260;DHT22;49390;51.380;0.098;2023-05-10T08:30:16;21.10;85.60
63260;DHT22;49390;51.380;0.098;2023-05-10T08:32:44;21.20;82.00
63260;DHT22;49390;51.380;0.098;2023-05-10T08:35:14;21.10;80.30
63260;DHT22;49390;51.380;0.098;2023-05-10T08:37:42;21.10;79.30
63260;DHT22;49390;51.380;0.098;2023-05-10T08:40:11;21.00;78.40
63260;DHT22;49390;51.380;0.098;2023-05-10T08:42:42;20.90;78.30
63260;DHT22;49390;51.380;0.098;2023-05-10T08:45:11;20.90;78.30
63260;DHT22;49390;51.380;0.098;2023-05-10T08:47:42;20.90;78.60
63260;DHT22;49390;51.380;0.098;2023-05-10T08:50:13;20.90;78.70
63260;DHT22;49390;51.380;0.098;2023-05-10T08:52:42;20.90;78.30
63260;DHT22;49390;51.380;0.098;2023-05-10T08:55:10;21.10;77.70
63260;DHT22;49390;51.380;0.098;2023-05-10T08:57:38;21.10;76.80
63260;DHT22;49390;51.380;0.098;2023-05-10T09:00:07;21.30;76.10
63260;DHT22;49390;51.380;0.098;2023-05-10T09:02:37;21.40;74.70
63260;DHT22;49390;51.380;0.098;2023-05-10T09:05:06;21.30;73.70
63260;DHT22;49390;51.380;0.098;2023-05-10T09:07:34;21.30;74.10
63260;DHT22;49390;51.380;0.098;2023-05-10T09:10:04;21.30;74.00
63260;DHT22;49390;51.380;0.098;2023-05-10T09:12:32;21.30;72.00
63260;DHT22;49390;51.380;0.098;2023-05-10T09:15:00;21.20;72.00
63260;DHT22;49390;51.380;0.098;2023-05-10T09:17:30;21.10;72.10
63260;DHT22;49390;51.380;0.098;2023-05-10T09:20:02;21.10;71.90
63260;DHT22;49390;51.380;0.098;2023-05-10T09:22:31;21.30;72.00
63260;DHT22;49390;51.380;0.098;2023-05-10T09:25:10;21.30;71.00
63260;DHT22;49390;51.380;0.098;2023-05-10T09:27:45;21.40;70.00
63260;DHT22;49390;51.380;0.098;2023-05-10T09:30:22;21.50;69.10
63260;DHT22;49390;51.380;0.098;2023-05-10T09:32:51;21.40;68.60
63260;DHT22;49390;51.380;0.098;2023-05-10T09:35:23;21.40;68.70
63260;DHT22;49390;51.380;0.098;2023-05-10T09:37:58;21.40;68.70
63260;DHT22;49390;51.380;0.098;2023-05-10T09:40:27;21.50;67.70
63260;DHT22;49390;51.380;0.098;2023-05-10T09:43:04;21.40;67.70
63260;DHT22;49390;51.380;0.098;2023-05-10T09:45:35;21.30;67.20
63260;DHT22;49390;51.380;0.098;2023-05-10T09:48:06;21.30;66.60
63260;DHT22;49390;51.380;0.098;2023-05-10T09:50:34;21.20;66.40
63260;DHT22;49390;51.380;0.098;2023-05-10T09:53:02;21.10;66.20
63260;DHT22;49390;51.380;0.098;2023-05-10T09:55:42;21.00;66.40
63260;DHT22;49390;51.380;0.098;2023-05-10T09:58:14;20.80;66.50
63260;DHT22;49390;51.380;0.098;2023-05-10T10:00:44;20.80;67.00
63260;DHT22;49390;51.380;0.098;2023-05-10T10:03:13;20.80;67.20
63260;DHT22;49390;51.380;0.098;2023-05-10T10:05:43;20.80;66.90
63260;DHT22;49390;51.380;0.098;2023-05-10T10:08:12;20.70;67.20
63260;DHT22;49390;51.380;0.098;2023-05-10T10:10:43;20.80;67.30
63260;DHT22;49390;51.380;0.098;2023-05-10T10:13:14;20.70;66.90
63260;DHT22;49390;51.380;0.098;2023-05-10T10:15:43;20.60;66.90
63260;DHT22;49390;51.380;0.098;2023-05-10T10:18:15;20.60;66.80
63260;DHT22;49390;51.380;0.098;2023-05-10T10:20:43;20.60;66.70
63260;DHT22;49390;51.380;0.098;2023-05-10T10:23:12;20.60;66.90
63260;DHT22;49390;51.380;0.098;2023-05-10T10:25:44;20.60;67.20
63260;DHT22;49390;51.380;0.098;2023-05-10T10:28:26;20.60;67.40
63260;DHT22;49390;51.380;0.098;2023-05-10T10:31:02;20.70;67.40
63260;DHT22;49390;51.380;0.098;2023-05-10T10:36:20;20.70;66.80
63260;DHT22;49390;51.380;0.098;2023-05-10T10:38:58;20.70;66.20
63260;DHT22;49390;51.380;0.098;2023-05-10T10:41:48;20.50;66.00
63260;DHT22;49390;51.380;0.098;2023-05-10T10:47:00;20.40;66.30
63260;DHT22;49390;51.380;0.098;2023-05-10T10:52:15;20.50;65.40
63260;DHT22;49390;51.380;0.098;2023-05-10T10:54:59;20.50;65.10
63260;DHT22;49390;51.380;0.098;2023-05-10T10:58:16;20.50;65.40
63260;DHT22;49390;51.380;0.098;2023-05-10T11:00:37;20.40;65.50
63260;DHT22;49390;51.380;0.098;2023-05-10T11:03:11;20.40;65.50
63260;DHT22;49390;51.380;0.098;2023-05-10T11:05:48;20.60;64.90
63260;DHT22;49390;51.380;0.098;2023-05-10T11:08:18;20.70;64.10
63260;DHT22;49390;51.380;0.098;2023-05-10T11:15:57;20.80;63.10
63260;DHT22;49390;51.380;0.098;2023-05-10T11:18:28;20.90;62.00
63260;DHT22;49390;51.380;0.098;2023-05-10T11:20:58;20.90;61.90
63260;DHT22;49390;51.380;0.098;2023-05-10T11:26:08;20.90;61.00
63260;DHT22;49390;51.380;0.098;2023-05-10T11:28:46;20.90;60.90
63260;DHT22;49390;51.380;0.098;2023-05-10T11:31:18;20.80;60.90
63260;DHT22;49390;51.380;0.098;2023-05-10T11:36:17;20.80;60.70
63260;DHT22;49390;51.380;0.098;2023-05-10T11:38:47;20.80;60.30
63260;DHT22;49390;51.380;0.098;2023-05-10T11:41:17;20.70;60.80
63260;DHT22;49390;51.380;0.098;2023-05-10T11:43:50;20.70;61.00
63260;DHT22;49390;51.380;0.098;2023-05-10T11:46:22;20.80;60.80
63260;DHT22;49390;51.380;0.098;2023-05-10T11:48:52;20.90;60.20
63260;DHT22;49390;51.380;0.098;2023-05-10T11:51:24;21.10;58.80
63260;DHT22;49390;51.380;0.098;2023-05-10T11:53:54;21.10;58.00
63260;DHT22;49390;51.380;0.098;2023-05-10T11:56:22;21.20;57.70
63260;DHT22;49390;51.380;0.098;2023-05-10T11:58:57;21.10;57.50
63260;DHT22;49390;51.380;0.098;2023-05-10T12:01:27;21.10;57.90
63260;DHT22;49390;51.380;0.098;2023-05-10T12:03:57;21.20;57.20
63260;DHT22;49390;51.380;0.098;2023-05-10T12:06:29;21.50;56.40
63260;DHT22;49390;51.380;0.098;2023-05-10T12:09:06;21.70;55.60
63260;DHT22;49390;51.380;0.098;2023-05-10T12:11:39;21.80;55.20
63260;DHT22;49390;51.380;0.098;2023-05-10T12:14:11;21.80;55.40
63260;DHT22;49390;51.380;0.098;2023-05-10T12:16:39;21.90;55.00
63260;DHT22;49390;51.380;0.098;2023-05-10T12:19:07;21.70;54.40
63260;DHT22;49390;51.380;0.098;2023-05-10T12:21:35;21.50;54.50
63260;DHT22;49390;51.380;0.098;2023-05-10T12:24:04;21.40;55.00
63260;DHT22;49390;51.380;0.098;2023-05-10T12:26:35;21.20;55.20
63260;DHT22;49390;51.380;0.098;2023-05-10T12:29:29;21.10;55.60
63260;DHT22;49390;51.380;0.098;2023-05-10T12:31:58;20.80;55.80
63260;DHT22;49390;51.380;0.098;2023-05-10T12:34:31;20.70;56.70
63260;DHT22;49390;51.380;0.098;2023-05-10T12:36:59;20.60;57.10
63260;DHT22;49390;51.380;0.098;2023-05-10T12:39:42;20.50;57.30
63260;DHT22;49390;51.380;0.098;2023-05-10T12:42:10;20.50;57.70
63260;DHT22;49390;51.380;0.098;2023-05-10T12:44:39;20.50;57.90
63260;DHT22;49390;51.380;0.098;2023-05-10T12:47:07;20.60;57.40
63260;DHT22;49390;51.380;0.098;2023-05-10T12:49:35;20.60;57.30
63260;DHT22;49390;51.380;0.098;2023-05-10T12:52:03;20.60;57.20
63260;DHT22;49390;51.380;0.098;2023-05-10T12:54:31;20.60;56.90
63260;DHT22;49390;51.380;0.098;2023-05-10T12:56:59;20.50;57.00
63260;DHT22;49390;51.380;0.098;2023-05-10T12:59:28;20.50;56.70
63260;DHT22;49390;51.380;0.098;2023-05-10T13:01:57;20.40;56.80
63260;DHT22;49390;51.380;0.098;2023-05-10T13:04:25;20.30;56.70
63260;DHT22;49390;51.380;0.098;2023-05-10T13:06:54;20.20;56.80
63260;DHT22;49390;51.380;0.098;2023-05-10T13:09:26;20.20;56.80
63260;DHT22;49390;51.380;0.098;2023-05-10T13:11:56;20.30;56.70
63260;DHT22;49390;51.380;0.098;2023-05-10T13:14:25;20.40;56.90
63260;DHT22;49390;51.380;0.098;2023-05-10T13:16:53;20.50;57.10
63260;DHT22;49390;51.380;0.098;2023-05-10T13:19:25;20.60;57.20
63260;DHT22;49390;51.380;0.098;2023-05-10T13:21:53;20.60;57.30
63260;DHT22;49390;51.380;0.098;2023-05-10T13:24:21;20.70;57.70
63260;DHT22;49390;51.380;0.098;2023-05-10T13:26:49;20.80;57.70
63260;DHT22;49390;51.380;0.098;2023-05-10T13:29:18;20.80;57.80
63260;DHT22;49390;51.380;0.098;2023-05-10T13:31:46;20.80;57.80
63260;DHT22;49390;51.380;0.098;2023-05-10T13:34:14;20.70;58.00
63260;DHT22;49390;51.380;0.098;2023-05-10T13:36:42;20.60;57.80
63260;DHT22;49390;51.380;0.098;2023-05-10T13:39:10;20.50;57.80
63260;DHT22;49390;51.380;0.098;2023-05-10T13:41:41;20.50;58.00
63260;DHT22;49390;51.380;0.098;2023-05-10T13:44:11;20.40;57.80
63260;DHT22;49390;51.380;0.098;2023-05-10T13:46:40;20.40;57.50
63260;DHT22;49390;51.380;0.098;2023-05-10T13:49:11;20.50;57.10
63260;DHT22;49390;51.380;0.098;2023-05-10T13:51:38;20.50;57.00
63260;DHT22;49390;51.380;0.098;2023-05-10T13:54:07;20.50;57.30
63260;DHT22;49390;51.380;0.098;2023-05-10T13:56:34;20.40;58.00
63260;DHT22;49390;51.380;0.098;2023-05-10T13:59:03;20.20;59.30
63260;DHT22;49390;51.380;0.098;2023-05-10T14:01:30;19.90;61.20
63260;DHT22;49390;51.380;0.098;2023-05-10T14:03:59;19.70;63.00
63260;DHT22;49390;51.380;0.098;2023-05-10T14:06:27;19.50;64.60
63260;DHT22;49390;51.380;0.098;2023-05-10T14:08:58;19.30;66.10
63260;DHT22;49390;51.380;0.098;2023-05-10T14:11:26;19.10;68.00
63260;DHT22;49390;51.380;0.098;2023-05-10T14:13:54;18.80;69.70
63260;DHT22;49390;51.380;0.098;2023-05-10T14:16:22;18.60;71.80
63260;DHT22;49390;51.380;0.098;2023-05-10T14:18:50;18.40;75.00
63260;DHT22;49390;51.380;0.098;2023-05-10T14:21:18;18.20;78.50
63260;DHT22;49390;51.380;0.098;2023-05-10T14:23:46;18.10;84.20
63260;DHT22;49390;51.380;0.098;2023-05-10T14:26:14;18.00;91.10
63260;DHT22;49390;51.380;0.098;2023-05-10T14:28:42;17.90;95.70
63260;DHT22;49390;51.380;0.098;2023-05-10T14:31:10;17.90;99.90
63260;DHT22;49390;51.380;0.098;2023-05-10T14:33:38;17.90;99.90
63260;DHT22;49390;51.380;0.098;2023-05-10T14:36:06;17.90;99.90
63260;DHT22;49390;51.380;0.098;2023-05-10T14:38:34;18.00;99.90
63260;DHT22;49390;51.380;0.098;2023-05-10T14:41:02;18.20;99.90
63260;DHT22;49390;51.380;0.098;2023-05-10T14:43:30;18.30;99.90
63260;DHT22;49390;51.380;0.098;2023-05-10T14:45:58;18.50;99.90
63260;DHT22;49390;51.380;0.098;2023-05-10T14:48:26;18.70;99.90
63260;DHT22;49390;51.380;0.098;2023-05-10T14:50:57;19.10;99.90
63260;DHT22;49390;51.380;0.098;2023-05-10T14:53:27;19.40;99.90
63260;DHT22;49390;51.380;0.098;2023-05-10T14:55:55;19.70;99.10
63260;DHT22;49390;51.380;0.098;2023-05-10T14:58:23;19.90;98.20
63260;DHT22;49390;51.380;0.098;2023-05-10T15:00:51;20.10;94.90
63260;DHT22;49390;51.380;0.098;2023-05-10T15:03:19;20.10;91.30
63260;DHT22;49390;51.380;0.098;2023-05-10T15:05:48;20.10;90.70
63260;DHT22;49390;51.380;0.098;2023-05-10T15:08:16;20.20;90.30
63260;DHT22;49390;51.380;0.098;2023-05-10T15:10:43;20.20;89.10
63260;DHT22;49390;51.380;0.098;2023-05-10T15:13:11;20.20;83.00
63260;DHT22;49390;51.380;0.098;2023-05-10T15:15:39;20.10;80.90
63260;DHT22;49390;51.380;0.098;2023-05-10T15:18:09;19.80;79.80
63260;DHT22;49390;51.380;0.098;2023-05-10T15:20:37;19.60;79.80
63260;DHT22;49390;51.380;0.098;2023-05-10T15:23:05;19.40;79.50
63260;DHT22;49390;51.380;0.098;2023-05-10T15:25:33;19.20;79.90
63260;DHT22;49390;51.380;0.098;2023-05-10T15:28:07;19.00;81.30
63260;DHT22;49390;51.380;0.098;2023-05-10T15:30:34;18.80;83.40
63260;DHT22;49390;51.380;0.098;2023-05-10T15:33:05;18.70;87.40
63260;DHT22;49390;51.380;0.098;2023-05-10T15:35:33;18.60;90.60
63260;DHT22;49390;51.380;0.098;2023-05-10T15:38:03;18.70;91.80
63260;DHT22;49390;51.380;0.098;2023-05-10T15:40:31;18.90;92.10
63260;DHT22;49390;51.380;0.098;2023-05-10T15:42:59;19.10;91.60
63260;DHT22;49390;51.380;0.098;2023-05-10T15:45:27;19.30;90.20
63260;DHT22;49390;51.380;0.098;2023-05-10T15:47:55;19.60;86.10
63260;DHT22;49390;51.380;0.098;2023-05-10T15:50:23;19.80;83.00
63260;DHT22;49390;51.380;0.098;2023-05-10T15:52:51;20.00;81.50
63260;DHT22;49390;51.380;0.098;2023-05-10T15:55:19;20.10;79.10
63260;DHT22;49390;51.380;0.098;2023-05-10T15:57:47;20.10;77.50
63260;DHT22;49390;51.380;0.098;2023-05-10T16:00:16;20.00;77.30
63260;DHT22;49390;51.380;0.098;2023-05-10T16:02:47;19.80;77.10
63260;DHT22;49390;51.380;0.098;2023-05-10T16:05:15;19.70;77.10
63260;DHT22;49390;51.380;0.098;2023-05-10T16:07:44;19.50;76.80
63260;DHT22;49390;51.380;0.098;2023-05-10T16:10:13;19.40;76.60
63260;DHT22;49390;51.380;0.098;2023-05-10T16:12:43;19.20;76.90
63260;DHT22;49390;51.380;0.098;2023-05-10T16:15:11;19.00;77.40
63260;DHT22;49390;51.380;0.098;2023-05-10T16:17:39;18.90;78.20
63260;DHT22;49390;51.380;0.098;2023-05-10T16:20:08;18.60;78.90